Time;durP1;ratioP1;P1;durP2;ratioP2;P2;SDS_P1;SDS_P2;PMS_P1;PMS_P2;Temp;Humidity;BMP_temperature;BMP_pressure;BME280_temperature;BME280_humidity;BME280_pressure;Samples;Min_cycle;Max_cycle;Signal;HPM_P1;HPM_P2
2021/07/02 00:00:26;;;;;;;31.03;25.27;;;14.90;99.90;;;;;;4993295;28;20816;-63
2021/07/02 00:02:52;;;;;;;33.07;25.97;;;14.90;99.90;;;;;;4992852;28;20447;-63
2021/07/02 00:05:19;;;;;;;32.77;24.50;;;14.90;99.90;;;;;;4993195;28;20489;-63
2021/07/02 00:07:46;;;;;;;27.33;22.37;;;14.90;99.90;;;;;;4993249;28;20443;-65
2021/07/02 00:10:13;;;;;;;37.20;24.30;;;14.90;99.90;;;;;;4993230;28;20446;-66
2021/07/02 00:12:40;;;;;;;35.27;24.50;;;14.80;99.90;;;;;;4992910;28;20462;-63
2021/07/02 00:15:09;;;;;;;29.17;24.10;;;14.80;99.90;;;;;;4993053;28;20446;-63
2021/07/02 00:17:36;;;;;;;32.83;25.50;;;14.70;99.90;;;;;;4993476;28;20849;-63
2021/07/02 00:20:03;;;;;;;31.57;23.20;;;14.70;99.90;;;;;;4992876;28;20443;-65
2021/07/02 00:22:29;;;;;;;33.00;23.60;;;14.70;99.90;;;;;;4992637;28;20455;-66
2021/07/02 00:24:56;;;;;;;36.70;27.70;;;14.70;99.90;;;;;;4992835;28;21014;-65
2021/07/02 00:27:23;;;;;;;35.60;25.27;;;14.70;99.90;;;;;;4992882;28;20839;-65
2021/07/02 00:29:49;;;;;;;32.40;23.57;;;14.70;99.90;;;;;;4992842;28;20847;-65
2021/07/02 00:32:17;;;;;;;31.37;26.40;;;14.70;99.90;;;;;;4992680;28;20446;-65
2021/07/02 00:34:44;;;;;;;35.80;24.90;;;14.70;99.90;;;;;;4992814;28;20442;-66
2021/07/02 00:37:11;;;;;;;39.77;24.10;;;14.70;99.90;;;;;;4992713;28;20474;-65
2021/07/02 00:39:38;;;;;;;29.87;24.40;;;14.60;99.90;;;;;;4992827;28;20523;-65
2021/07/02 00:42:05;;;;;;;35.93;26.90;;;14.60;99.90;;;;;;4992395;28;20451;-63
2021/07/02 00:44:41;;;;;;;31.87;24.23;;;14.60;99.90;;;;;;4992743;28;20482;-65
2021/07/02 00:47:08;;;;;;;40.53;26.20;;;14.60;99.90;;;;;;4992459;28;21000;-66
2021/07/02 00:49:38;;;;;;;35.53;26.00;;;14.50;99.90;;;;;;4992590;28;20450;-65
2021/07/02 00:52:06;;;;;;;33.47;25.17;;;14.50;99.90;;;;;;4992393;28;20461;-65
2021/07/02 00:54:33;;;;;;;35.63;22.27;;;14.40;99.90;;;;;;4991607;28;20943;-65
2021/07/02 00:57:01;;;;;;;32.43;23.23;;;14.30;99.90;;;;;;4992433;28;20471;-66
2021/07/02 00:59:28;;;;;;;33.03;21.77;;;14.30;99.90;;;;;;4992084;28;20450;-65
2021/07/02 01:01:54;;;;;;;29.80;22.23;;;14.30;99.90;;;;;;4992199;28;20816;-65
2021/07/02 01:04:23;;;;;;;36.50;22.40;;;14.20;99.90;;;;;;4992522;28;20853;-65
2021/07/02 01:06:52;;;;;;;35.03;20.03;;;14.30;99.90;;;;;;4992162;28;20466;-63
2021/07/02 01:09:19;;;;;;;38.90;22.57;;;14.20;99.90;;;;;;4992337;28;20451;-66
2021/07/02 01:11:46;;;;;;;32.87;22.37;;;14.20;99.90;;;;;;4992151;28;20471;-65
2021/07/02 01:14:13;;;;;;;37.83;24.40;;;14.20;99.90;;;;;;4992293;28;20447;-65
2021/07/02 01:16:40;;;;;;;30.03;22.93;;;14.20;99.90;;;;;;4992332;28;20479;-65
2021/07/02 01:19:07;;;;;;;34.60;26.07;;;14.10;99.90;;;;;;4992073;28;20462;-65
2021/07/02 01:21:35;;;;;;;37.67;22.83;;;14.00;99.90;;;;;;4992054;28;20443;-65
2021/07/02 01:24:03;;;;;;;32.20;22.07;;;14.00;99.90;;;;;;4992199;28;20489;-65
2021/07/02 01:26:31;;;;;;;30.97;20.30;;;13.90;99.90;;;;;;4992186;28;20466;-65
2021/07/02 01:28:58;;;;;;;34.27;19.30;;;13.90;99.90;;;;;;4992324;28;20443;-65
2021/07/02 01:31:25;;;;;;;34.13;22.00;;;13.90;99.90;;;;;;4991954;28;20457;-65
2021/07/02 01:33:52;;;;;;;32.33;22.23;;;13.80;99.90;;;;;;4992152;28;20458;-65
2021/07/02 01:36:20;;;;;;;35.90;21.00;;;13.80;99.90;;;;;;4992191;28;20467;-65
2021/07/02 01:38:49;;;;;;;33.73;20.63;;;13.70;99.90;;;;;;4991873;28;20453;-65
2021/07/02 01:41:16;;;;;;;38.47;21.23;;;13.70;99.90;;;;;;4991857;28;20869;-65
2021/07/02 01:43:42;;;;;;;36.87;22.97;;;13.60;99.90;;;;;;4991960;28;20479;-64
2021/07/02 01:46:09;;;;;;;41.10;24.47;;;13.60;99.90;;;;;;4991838;28;20899;-64
2021/07/02 01:48:36;;;;;;;42.30;23.00;;;13.60;99.90;;;;;;4992102;28;20443;-65
2021/07/02 01:51:03;;;;;;;35.70;22.57;;;13.50;99.90;;;;;;4992009;28;20443;-65
2021/07/02 01:53:30;;;;;;;31.73;22.10;;;13.50;99.90;;;;;;4991800;28;20469;-65
2021/07/02 01:55:58;;;;;;;38.70;22.30;;;13.50;99.90;;;;;;4991833;28;20976;-65
2021/07/02 01:58:25;;;;;;;36.70;25.20;;;13.50;99.90;;;;;;4992064;28;20454;-65
2021/07/02 02:00:51;;;;;;;35.67;21.90;;;13.50;99.90;;;;;;4991773;28;20443;-65
2021/07/02 02:03:18;;;;;;;40.27;22.53;;;13.50;99.90;;;;;;4991760;28;20474;-65
2021/07/02 02:05:45;;;;;;;33.27;21.40;;;13.50;99.90;;;;;;4993700;28;20490;-65
2021/07/02 02:08:11;;;;;;;37.73;25.10;;;13.60;99.90;;;;;;4995443;28;20447;-65
2021/07/02 02:10:38;;;;;;;41.03;21.40;;;13.60;99.90;;;;;;4995442;28;21010;-65
2021/07/02 02:13:06;;;;;;;41.30;22.70;;;13.60;99.90;;;;;;4995126;28;20446;-65
2021/07/02 02:15:33;;;;;;;34.27;18.40;;;13.60;99.90;;;;;;4995147;28;20463;-65
2021/07/02 02:18:00;;;;;;;33.53;20.80;;;13.70;99.90;;;;;;4995251;28;20443;-65
2021/07/02 02:20:27;;;;;;;32.17;21.33;;;13.70;99.90;;;;;;4994747;28;20549;-65
2021/07/02 02:22:54;;;;;;;33.87;20.47;;;13.80;99.90;;;;;;4994981;28;20450;-65
2021/07/02 02:25:21;;;;;;;35.97;19.93;;;13.70;99.90;;;;;;4995053;28;20999;-65
2021/07/02 02:27:48;;;;;;;38.63;24.23;;;13.80;99.90;;;;;;4995092;28;20450;-65
2021/07/02 02:30:17;;;;;;;37.27;20.00;;;13.80;99.90;;;;;;4995086;28;20940;-65
2021/07/02 02:32:44;;;;;;;44.57;23.20;;;13.80;99.90;;;;;;4994778;28;20454;-65
2021/07/02 02:35:11;;;;;;;39.13;21.70;;;13.80;99.90;;;;;;4995035;28;20442;-65
2021/07/02 02:37:38;;;;;;;31.90;20.50;;;13.80;99.90;;;;;;4994973;28;20443;-65
2021/07/02 02:40:05;;;;;;;29.10;18.70;;;13.70;99.90;;;;;;4994924;28;20453;-65
2021/07/02 02:42:32;;;;;;;32.37;19.20;;;13.80;99.90;;;;;;4994694;28;20458;-65
2021/07/02 02:44:59;;;;;;;32.93;22.07;;;13.80;99.90;;;;;;4994611;28;20482;-65
2021/07/02 02:47:27;;;;;;;35.60;19.17;;;13.80;99.90;;;;;;4994890;28;20446;-65
2021/07/02 02:49:54;;;;;;;30.73;20.87;;;13.80;99.90;;;;;;4994597;28;20529;-65
2021/07/02 02:52:20;;;;;;;30.23;20.50;;;13.80;99.90;;;;;;4994595;28;20450;-65
2021/07/02 02:54:47;;;;;;;33.67;20.20;;;13.80;99.90;;;;;;4994552;28;20505;-65
2021/07/02 02:57:14;;;;;;;29.20;19.63;;;13.90;99.90;;;;;;4994511;28;20466;-65
2021/07/02 02:59:41;;;;;;;29.90;20.27;;;13.80;99.90;;;;;;4994343;28;20451;-65
2021/07/02 03:02:08;;;;;;;37.33;22.20;;;13.90;99.90;;;;;;4994233;28;21060;-65
2021/07/02 03:04:37;;;;;;;44.07;23.00;;;13.90;99.90;;;;;;4994303;28;21007;-65
2021/07/02 03:07:05;;;;;;;28.90;19.87;;;13.90;99.90;;;;;;4994311;28;20466;-65
2021/07/02 03:09:32;;;;;;;36.03;20.07;;;13.90;99.90;;;;;;4994372;28;20451;-65
2021/07/02 03:11:59;;;;;;;38.40;21.77;;;14.00;99.90;;;;;;4994129;28;20450;-65
2021/07/02 03:14:26;;;;;;;30.77;18.87;;;14.00;99.90;;;;;;4994265;28;20443;-65
2021/07/02 03:16:53;;;;;;;31.90;22.50;;;14.00;99.90;;;;;;4993372;28;20467;-64
2021/07/02 03:19:20;;;;;;;28.00;19.20;;;14.00;99.90;;;;;;4994235;28;20450;-65
2021/07/02 03:21:49;;;;;;;37.10;19.80;;;14.00;99.90;;;;;;4993894;28;20804;-65
2021/07/02 03:24:16;;;;;;;32.40;19.77;;;14.00;99.90;;;;;;4994026;28;20478;-65
2021/07/02 03:26:43;;;;;;;27.93;20.97;;;14.00;99.90;;;;;;4993953;28;20467;-65
2021/07/02 03:29:09;;;;;;;30.27;18.90;;;14.00;99.90;;;;;;4994050;28;20808;-65
2021/07/02 03:31:36;;;;;;;34.20;21.23;;;14.00;99.90;;;;;;4993689;28;20439;-65
2021/07/02 03:34:03;;;;;;;30.90;20.53;;;14.00;99.90;;;;;;4993750;28;20447;-65
2021/07/02 03:36:30;;;;;;;32.13;20.80;;;13.90;99.90;;;;;;4993930;28;20469;-65
2021/07/02 03:38:58;;;;;;;33.43;21.93;;;13.90;99.90;;;;;;4993450;28;20928;-65
2021/07/02 03:41:25;;;;;;;39.40;19.30;;;13.80;99.90;;;;;;4993219;28;20458;-65
2021/07/02 03:43:52;;;;;;;31.67;19.63;;;13.80;99.90;;;;;;4993517;28;20451;-65
2021/07/02 03:46:18;;;;;;;32.50;21.07;;;13.70;99.90;;;;;;4993271;28;20491;-65
2021/07/02 03:48:45;;;;;;;24.47;18.23;;;13.70;99.90;;;;;;4993496;28;20535;-65
2021/07/02 03:51:12;;;;;;;31.30;21.90;;;13.60;99.90;;;;;;4993511;28;20474;-65
2021/07/02 03:53:39;;;;;;;28.87;18.10;;;13.60;99.90;;;;;;4993539;28;20530;-65
2021/07/02 03:56:08;;;;;;;30.57;20.33;;;13.50;99.90;;;;;;4993344;28;20463;-65
2021/07/02 03:58:34;;;;;;;32.17;21.10;;;13.50;99.90;;;;;;4993464;28;20503;-65
2021/07/02 04:01:01;;;;;;;27.70;19.50;;;13.50;99.90;;;;;;4993307;28;20518;-65
2021/07/02 04:03:28;;;;;;;28.80;20.23;;;13.50;99.90;;;;;;4993128;28;20446;-65
2021/07/02 04:05:55;;;;;;;30.93;20.70;;;13.50;99.90;;;;;;4993174;28;20494;-65
2021/07/02 04:08:22;;;;;;;33.77;22.87;;;13.50;99.90;;;;;;4993126;28;20947;-64
2021/07/02 04:10:49;;;;;;;34.63;21.03;;;13.50;99.90;;;;;;4993181;28;20451;-65
2021/07/02 04:13:17;;;;;;;33.17;21.07;;;13.50;99.90;;;;;;4992957;28;20450;-65
2021/07/02 04:15:44;;;;;;;32.83;20.17;;;13.50;99.90;;;;;;4993011;28;20455;-65
2021/07/02 04:18:11;;;;;;;33.83;21.53;;;13.60;99.90;;;;;;4993043;28;20447;-65
2021/07/02 04:20:38;;;;;;;30.60;21.77;;;13.60;99.90;;;;;;4992469;28;20443;-65
2021/07/02 04:23:05;;;;;;;25.90;19.30;;;13.70;99.90;;;;;;4992650;28;20537;-65
2021/07/02 04:25:32;;;;;;;39.30;25.00;;;13.80;99.90;;;;;;4992815;28;20490;-65
2021/07/02 04:27:59;;;;;;;34.60;20.23;;;13.80;99.90;;;;;;4992717;28;20455;-65
2021/07/02 04:30:27;;;;;;;28.90;19.83;;;13.90;99.90;;;;;;4992871;28;20446;-65
2021/07/02 04:32:54;;;;;;;32.50;22.17;;;14.00;99.90;;;;;;4992568;28;20450;-65
2021/07/02 04:35:20;;;;;;;28.70;21.60;;;14.00;99.90;;;;;;4992832;28;20956;-65
2021/07/02 04:37:47;;;;;;;27.43;19.40;;;14.00;99.90;;;;;;4992738;28;20450;-65
2021/07/02 04:40:14;;;;;;;38.10;21.60;;;14.00;99.90;;;;;;4992718;28;20455;-65
2021/07/02 04:42:41;;;;;;;35.47;21.67;;;14.10;99.90;;;;;;4992535;28;20454;-65
2021/07/02 04:45:08;;;;;;;28.33;21.40;;;14.20;99.90;;;;;;4992264;28;20826;-64
2021/07/02 04:47:37;;;;;;;27.63;22.83;;;14.30;99.90;;;;;;4992613;28;20439;-65
2021/07/02 04:50:05;;;;;;;24.70;20.90;;;14.20;99.90;;;;;;4992606;28;20446;-65
2021/07/02 04:52:31;;;;;;;36.67;22.53;;;14.40;99.90;;;;;;4990492;28;20450;-66
2021/07/02 04:54:58;;;;;;;28.93;21.70;;;14.40;99.90;;;;;;4991032;28;20439;-64
2021/07/02 04:57:25;;;;;;;23.33;20.90;;;14.60;99.90;;;;;;4991716;28;20450;-64
2021/07/02 04:59:51;;;;;;;27.20;21.60;;;14.80;99.90;;;;;;4992570;28;20481;-65
2021/07/02 05:02:18;;;;;;;20.63;18.50;;;14.90;99.90;;;;;;4991934;28;20442;-65
2021/07/02 05:04:46;;;;;;;25.50;21.20;;;15.10;99.90;;;;;;4991378;28;20833;-65
2021/07/02 05:07:14;;;;;;;26.90;20.40;;;15.20;99.90;;;;;;4991145;28;20467;-65
2021/07/02 05:09:41;;;;;;;23.17;20.97;;;15.30;99.90;;;;;;4991176;28;20454;-65
2021/07/02 05:12:10;;;;;;;21.10;19.20;;;15.50;99.90;;;;;;4991084;28;20447;-65
2021/07/02 05:14:37;;;;;;;20.17;18.23;;;15.60;99.90;;;;;;4991171;28;20447;-65
2021/07/02 05:17:05;;;;;;;23.70;21.20;;;15.80;99.90;;;;;;4991112;28;20466;-65
2021/07/02 05:19:31;;;;;;;21.50;19.50;;;15.90;99.90;;;;;;4992075;28;20447;-65
2021/07/02 05:22:00;;;;;;;23.10;20.87;;;16.00;99.90;;;;;;4991825;28;20457;-65
2021/07/02 05:24:26;;;;;;;30.33;22.60;;;16.10;99.90;;;;;;4992024;28;20454;-65
2021/07/02 05:26:53;;;;;;;23.27;21.17;;;16.30;99.90;;;;;;4991842;28;20482;-65
2021/07/02 05:29:20;;;;;;;24.03;21.90;;;16.40;99.90;;;;;;4992013;28;20457;-65
2021/07/02 05:31:46;;;;;;;24.23;22.23;;;16.50;99.90;;;;;;4991698;28;20447;-65
2021/07/02 05:34:13;;;;;;;25.43;23.20;;;16.60;99.90;;;;;;4991918;28;20439;-65
2021/07/02 05:36:40;;;;;;;30.40;23.57;;;16.80;99.90;;;;;;4991893;28;20466;-65
2021/07/02 05:39:08;;;;;;;24.80;22.50;;;16.90;99.90;;;;;;4991997;28;20447;-65
2021/07/02 05:41:35;;;;;;;25.27;23.17;;;17.00;99.90;;;;;;4995203;28;20920;-65
2021/07/02 05:44:01;;;;;;;25.43;23.63;;;17.10;99.90;;;;;;4995838;28;20456;-65
2021/07/02 05:46:29;;;;;;;26.00;23.90;;;17.20;99.90;;;;;;4995359;28;20494;-65
2021/07/02 05:48:56;;;;;;;25.00;22.67;;;17.40;99.90;;;;;;4995725;28;20454;-65
2021/07/02 05:51:23;;;;;;;25.20;23.20;;;17.50;99.90;;;;;;4995412;28;20983;-65
2021/07/02 05:53:50;;;;;;;26.30;24.20;;;17.60;99.90;;;;;;4995566;28;20805;-65
2021/07/02 05:56:18;;;;;;;24.77;22.10;;;17.60;99.90;;;;;;5018718;23;20469;-64
2021/07/02 05:58:45;;;;;;;24.63;22.73;;;17.60;99.90;;;;;;4975095;28;20571;-65
2021/07/02 06:01:11;;;;;;;24.37;22.27;;;17.60;99.90;;;;;;4956358;28;20449;-65
2021/07/02 06:03:38;;;;;;;25.67;23.70;;;17.70;99.90;;;;;;4956443;28;20448;-64
2021/07/02 06:06:05;;;;;;;24.57;22.87;;;17.90;99.90;;;;;;4956398;28;20492;-65
2021/07/02 06:08:31;;;;;;;25.23;23.23;;;18.00;99.90;;;;;;4956425;28;20946;-64
2021/07/02 06:10:59;;;;;;;26.50;24.63;;;18.10;99.90;;;;;;4956352;28;20452;-65
2021/07/02 06:13:27;;;;;;;22.93;21.60;;;18.10;99.90;;;;;;4956160;28;20456;-64
2021/07/02 06:15:54;;;;;;;23.90;22.40;;;18.20;99.90;;;;;;4956324;28;20456;-64
2021/07/02 06:18:21;;;;;;;24.53;22.83;;;18.30;99.90;;;;;;4956182;28;20468;-64
2021/07/02 06:20:51;;;;;;;25.10;23.40;;;18.30;99.90;;;;;;4956151;28;20972;-65
2021/07/02 06:23:18;;;;;;;24.00;22.40;;;18.30;99.90;;;;;;4955998;28;20539;-65
2021/07/02 06:25:45;;;;;;;24.10;22.30;;;18.40;99.90;;;;;;4956040;28;20488;-65
2021/07/02 06:28:12;;;;;;;23.80;22.20;;;18.40;99.90;;;;;;4955991;28;20476;-65
2021/07/02 06:30:41;;;;;;;23.57;21.93;;;18.50;99.90;;;;;;4956038;28;20449;-65
2021/07/02 06:33:08;;;;;;;25.97;23.83;;;18.40;99.90;;;;;;4955791;28;20448;-65
2021/07/02 06:35:35;;;;;;;24.80;23.17;;;18.40;99.90;;;;;;4956031;28;20822;-65
2021/07/02 06:38:02;;;;;;;24.17;22.57;;;18.50;99.90;;;;;;4955889;28;20472;-65
2021/07/02 06:40:28;;;;;;;24.60;22.53;;;18.60;99.90;;;;;;4955870;28;20460;-65
2021/07/02 06:42:55;;;;;;;24.70;23.10;;;18.70;99.90;;;;;;4955546;28;20449;-65
2021/07/02 06:45:23;;;;;;;24.77;22.93;;;18.80;99.90;;;;;;4955650;28;20488;-64
2021/07/02 06:47:59;;;;;;;25.27;22.80;;;19.00;99.90;;;;;;4955601;28;20472;-65
2021/07/02 06:50:27;;;;;;;23.77;22.00;;;19.10;99.90;;;;;;4955694;28;20452;-65
2021/07/02 06:52:54;;;;;;;23.50;21.77;;;19.20;99.90;;;;;;4955508;28;20449;-65
2021/07/02 06:55:21;;;;;;;24.23;22.63;;;19.40;99.90;;;;;;4955658;28;20444;-65
2021/07/02 06:57:48;;;;;;;23.30;21.87;;;19.60;99.90;;;;;;4955339;28;20482;-65
2021/07/02 07:00:17;;;;;;;24.13;22.40;;;19.80;99.90;;;;;;4955574;28;20829;-65
2021/07/02 07:02:44;;;;;;;25.30;23.50;;;20.00;99.90;;;;;;4955247;28;20892;-65
2021/07/02 07:05:13;;;;;;;24.03;22.63;;;20.30;99.90;;;;;;4955350;28;20448;-65
2021/07/02 07:07:40;;;;;;;24.60;22.90;;;20.50;99.90;;;;;;4955368;28;20461;-65
2021/07/02 07:10:08;;;;;;;23.73;22.23;;;20.60;99.90;;;;;;4955320;28;20450;-65
2021/07/02 07:12:35;;;;;;;23.57;22.03;;;20.70;99.90;;;;;;4955171;28;20460;-65
2021/07/02 07:15:02;;;;;;;24.77;22.97;;;20.70;99.90;;;;;;4955359;28;20938;-65
2021/07/02 07:17:29;;;;;;;23.50;21.80;;;20.60;99.90;;;;;;4955090;28;20465;-64
2021/07/02 07:19:56;;;;;;;23.37;22.17;;;20.30;99.90;;;;;;4955229;28;20543;-65
2021/07/02 07:22:24;;;;;;;23.97;22.57;;;20.00;99.90;;;;;;4954967;28;20938;-65
2021/07/02 07:24:51;;;;;;;24.70;23.20;;;19.90;99.90;;;;;;4955113;28;20444;-64
2021/07/02 07:27:18;;;;;;;23.93;22.00;;;19.90;99.90;;;;;;4954904;28;20488;-65
2021/07/02 07:29:45;;;;;;;28.23;25.93;;;19.90;99.90;;;;;;4954984;28;20449;-64
2021/07/02 07:32:12;;;;;;;25.50;23.70;;;19.90;99.90;;;;;;4954777;28;20453;-64
2021/07/02 07:34:44;;;;;;;23.97;22.57;;;19.90;99.90;;;;;;4954874;28;20493;-65
2021/07/02 07:37:14;;;;;;;23.97;22.40;;;19.90;99.90;;;;;;4954803;28;20465;-65
2021/07/02 07:39:42;;;;;;;23.70;22.10;;;19.80;99.90;;;;;;4954915;28;20449;-65
2021/07/02 07:42:09;;;;;;;23.57;22.13;;;19.80;99.90;;;;;;4954531;28;20806;-65
2021/07/02 07:44:36;;;;;;;23.10;21.50;;;19.90;99.90;;;;;;4954634;28;20457;-65
2021/07/02 07:47:02;;;;;;;23.43;21.90;;;20.10;99.90;;;;;;4954673;28;20492;-65
2021/07/02 07:49:29;;;;;;;22.90;21.30;;;20.30;99.90;;;;;;4954767;28;20449;-65
2021/07/02 07:51:59;;;;;;;23.20;21.70;;;20.40;99.90;;;;;;4954391;28;20832;-65
2021/07/02 07:54:27;;;;;;;21.70;20.80;;;20.80;99.90;;;;;;4954528;28;20957;-65
2021/07/02 07:56:55;;;;;;;22.20;21.10;;;21.10;98.80;;;;;;4954376;28;20479;-65
2021/07/02 07:59:25;;;;;;;21.60;20.50;;;21.40;97.50;;;;;;4954497;28;20449;-65
2021/07/02 08:01:52;;;;;;;21.13;20.13;;;21.50;95.70;;;;;;4954145;28;20981;-65
2021/07/02 08:04:19;;;;;;;20.53;19.43;;;21.50;92.90;;;;;;4953918;28;20445;-65
2021/07/02 08:06:47;;;;;;;20.50;19.60;;;21.30;92.00;;;;;;4954099;28;21049;-65
2021/07/02 08:09:15;;;;;;;21.57;20.43;;;21.30;92.60;;;;;;4954289;28;20449;-65
2021/07/02 08:11:42;;;;;;;21.83;20.73;;;21.40;91.00;;;;;;4954006;28;20547;-65
2021/07/02 08:14:11;;;;;;;22.07;20.87;;;21.70;90.80;;;;;;4954125;28;20451;-65
2021/07/02 08:16:39;;;;;;;22.23;20.67;;;21.70;89.20;;;;;;4954166;28;20469;-65
2021/07/02 08:19:06;;;;;;;22.90;21.40;;;21.60;90.40;;;;;;4954164;28;20460;-65
2021/07/02 08:21:33;;;;;;;21.60;20.50;;;22.10;90.70;;;;;;4953901;28;20800;-65
2021/07/02 08:24:00;;;;;;;21.30;20.30;;;22.50;86.20;;;;;;4953982;28;20448;-65
2021/07/02 08:26:27;;;;;;;20.70;19.67;;;22.80;83.20;;;;;;4953727;28;20491;-65
2021/07/02 08:31:39;;;;;;;20.50;19.63;;;23.30;79.00;;;;;;4953769;29;21160;-65
2021/07/02 08:34:06;;;;;;;21.27;20.07;;;23.50;73.30;;;;;;4953978;28;20456;-65
2021/07/02 08:36:33;;;;;;;21.80;20.90;;;23.80;72.90;;;;;;4953585;28;20468;-65
2021/07/02 08:39:00;;;;;;;22.90;21.43;;;24.00;69.40;;;;;;4953856;28;20448;-65
2021/07/02 08:41:26;;;;;;;21.60;20.70;;;24.00;67.00;;;;;;4953554;28;20947;-65
2021/07/02 08:43:53;;;;;;;22.20;21.20;;;23.60;68.30;;;;;;4953812;28;20453;-65
2021/07/02 08:46:22;;;;;;;21.00;19.70;;;23.60;66.00;;;;;;4953745;28;20850;-65
2021/07/02 08:48:51;;;;;;;23.10;21.70;;;23.50;66.50;;;;;;4953581;28;20529;-65
2021/07/02 08:51:18;;;;;;;22.63;21.50;;;23.60;67.90;;;;;;4953594;28;20448;-65
2021/07/02 08:53:45;;;;;;;21.70;20.70;;;23.80;66.20;;;;;;4953556;28;20476;-65
2021/07/02 08:56:12;;;;;;;22.93;21.40;;;23.90;66.60;;;;;;4953349;28;20437;-65
2021/07/02 08:58:39;;;;;;;22.50;21.33;;;23.80;64.50;;;;;;4953503;28;20479;-65
2021/07/02 09:01:08;;;;;;;21.67;20.73;;;23.80;64.50;;;;;;4953290;28;20456;-65
2021/07/02 09:03:36;;;;;;;21.77;20.83;;;23.20;65.80;;;;;;4953652;28;20449;-65
2021/07/02 09:06:19;;;;;;;21.37;20.27;;;23.50;67.30;;;;;;4953419;28;20507;-65
2021/07/02 09:08:59;;;;;;;22.43;21.40;;;23.80;65.60;;;;;;4952064;28;20460;-65
2021/07/02 09:11:28;;;;;;;20.90;20.10;;;24.20;64.50;;;;;;4953365;28;20440;-65
2021/07/02 09:13:55;;;;;;;22.43;21.40;;;24.40;63.90;;;;;;4952981;28;20576;-65
2021/07/02 09:16:24;;;;;;;26.33;24.80;;;24.30;63.30;;;;;;4952912;28;20444;-65
2021/07/02 09:18:51;;;;;;;22.23;21.03;;;24.20;64.60;;;;;;4953431;28;20453;-65
2021/07/02 09:21:26;;;;;;;21.90;20.80;;;23.90;61.60;;;;;;4953114;28;20452;-65
2021/07/02 09:23:57;;;;;;;21.90;20.90;;;23.90;62.90;;;;;;4953196;28;20774;-65
2021/07/02 09:26:38;;;;;;;22.83;21.63;;;24.30;62.80;;;;;;4953268;28;20484;-65
2021/07/02 09:29:15;;;;;;;22.30;21.40;;;24.50;60.90;;;;;;4953250;28;20455;-65
2021/07/02 09:31:42;;;;;;;24.20;23.00;;;24.00;60.00;;;;;;4953072;28;20456;-65
2021/07/02 09:34:09;;;;;;;23.10;21.77;;;23.80;60.60;;;;;;4953141;28;20946;-65
2021/07/02 09:36:37;;;;;;;23.57;22.43;;;23.50;61.50;;;;;;4953175;28;20560;-65
2021/07/02 09:39:28;;;;;;;22.97;21.60;;;23.40;64.20;;;;;;4953431;28;20474;-65
2021/07/02 09:41:55;;;;;;;22.67;21.67;;;23.40;64.10;;;;;;4952754;28;20480;-65
2021/07/02 09:44:22;;;;;;;23.37;22.00;;;23.30;64.70;;;;;;4953160;28;20449;-65
2021/07/02 09:46:48;;;;;;;22.43;21.17;;;23.40;64.40;;;;;;4952828;28;20905;-64
2021/07/02 09:49:24;;;;;;;23.70;22.40;;;23.90;63.80;;;;;;4953192;28;20485;-64
2021/07/02 09:51:53;;;;;;;23.80;22.57;;;24.00;62.20;;;;;;4952899;28;20448;-64
2021/07/02 09:54:19;;;;;;;22.50;21.40;;;23.90;63.10;;;;;;4952953;28;20938;-64
2021/07/02 09:56:46;;;;;;;23.10;21.77;;;24.20;63.60;;;;;;4952908;28;20476;-65
2021/07/02 09:59:16;;;;;;;23.87;22.80;;;24.40;62.60;;;;;;4952943;28;20444;-65
2021/07/02 10:01:43;;;;;;;25.30;23.80;;;23.90;61.10;;;;;;4952776;28;20508;-65
2021/07/02 10:04:10;;;;;;;24.40;22.80;;;23.80;62.60;;;;;;4952865;28;20452;-65
2021/07/02 10:06:37;;;;;;;24.00;22.80;;;23.80;63.40;;;;;;4952830;28;21014;-64
2021/07/02 10:09:06;;;;;;;25.33;24.07;;;24.20;65.30;;;;;;4952813;28;20451;-65
2021/07/02 10:11:35;;;;;;;22.20;21.20;;;24.00;62.10;;;;;;4952734;28;20936;-65
2021/07/02 10:14:02;;;;;;;22.07;20.90;;;24.30;61.30;;;;;;4953019;28;20981;-65
2021/07/02 10:16:30;;;;;;;25.03;23.73;;;24.80;62.40;;;;;;4952774;28;20465;-65
2021/07/02 10:19:00;;;;;;;23.43;22.43;;;25.30;59.60;;;;;;4952806;28;20927;-65
2021/07/02 10:21:27;;;;;;;24.07;22.77;;;26.00;59.00;;;;;;4952567;28;20947;-65
2021/07/02 10:23:56;;;;;;;24.97;23.67;;;26.50;57.70;;;;;;4952624;28;20796;-65
2021/07/02 10:26:28;;;;;;;24.13;22.80;;;26.70;56.70;;;;;;4954132;28;20825;-65
2021/07/02 10:28:54;;;;;;;22.20;21.10;;;26.80;54.90;;;;;;4956211;28;20907;-65
2021/07/02 10:31:21;;;;;;;23.53;22.33;;;26.80;54.50;;;;;;4955883;28;20479;-65
2021/07/02 10:33:50;;;;;;;23.47;22.07;;;27.00;53.80;;;;;;4955995;28;20452;-65
2021/07/02 10:36:18;;;;;;;25.23;23.83;;;27.30;53.80;;;;;;4955787;28;20467;-65
2021/07/02 10:38:47;;;;;;;24.50;23.20;;;27.30;53.00;;;;;;4955931;28;20852;-65
2021/07/02 10:41:14;;;;;;;25.83;24.20;;;27.30;53.90;;;;;;4955829;28;20448;-65
2021/07/02 10:44:06;;;;;;;25.00;23.70;;;27.00;53.00;;;;;;4955992;28;20476;-65
2021/07/02 10:46:34;;;;;;;25.97;24.33;;;26.70;53.40;;;;;;4955836;28;20938;-65
2021/07/02 10:49:02;;;;;;;25.93;24.53;;;26.80;53.70;;;;;;4955729;28;20448;-65
2021/07/02 10:51:58;;;;;;;24.83;23.43;;;27.00;53.00;;;;;;4955583;28;20853;-65
2021/07/02 10:54:30;;;;;;;26.00;24.70;;;26.50;53.40;;;;;;4955631;28;20503;-65
2021/07/02 10:57:03;;;;;;;24.73;23.57;;;26.40;54.40;;;;;;4955469;28;20839;-65
2021/07/02 11:00:09;;;;;;;26.57;24.80;;;26.20;54.90;;;;;;4955600;28;20449;-65
2021/07/02 11:02:37;;;;;;;25.60;24.10;;;26.70;54.00;;;;;;4955236;28;20444;-65
2021/07/02 11:05:24;;;;;;;25.63;24.20;;;27.50;54.20;;;;;;4955576;28;20451;-65
2021/07/02 11:07:53;;;;;;;24.13;22.73;;;27.50;53.20;;;;;;4955242;28;20587;-65
2021/07/02 11:10:22;;;;;;;25.33;23.90;;;27.50;53.20;;;;;;4955343;28;20470;-65
2021/07/02 11:13:05;;;;;;;25.67;24.47;;;27.70;52.70;;;;;;4955130;28;20456;-65
2021/07/02 11:15:33;;;;;;;25.67;24.30;;;27.50;52.50;;;;;;4955236;28;20503;-65
2021/07/02 11:18:14;;;;;;;26.23;24.57;;;27.50;52.70;;;;;;4955180;28;20543;-65
2021/07/02 11:20:41;;;;;;;26.13;24.93;;;27.50;53.40;;;;;;4955358;28;20457;-65
2021/07/02 11:23:22;;;;;;;26.20;24.90;;;26.90;53.30;;;;;;4954910;28;20445;-65
2021/07/02 11:26:00;;;;;;;27.57;25.93;;;26.70;53.60;;;;;;4955055;28;20448;-65
2021/07/02 11:28:54;;;;;;;27.73;26.23;;;27.40;53.60;;;;;;4954903;28;20993;-65
2021/07/02 11:31:36;;;;;;;29.53;27.73;;;27.70;53.20;;;;;;4954845;28;20452;-65
2021/07/02 11:34:24;;;;;;;27.97;26.47;;;28.70;52.20;;;;;;4954964;28;20514;-65
2021/07/02 11:37:11;;;;;;;28.93;27.33;;;30.00;51.00;;;;;;4951359;28;20868;-65
2021/07/02 11:39:39;;;;;;;28.87;27.13;;;30.00;48.00;;;;;;4954624;28;20448;-65
2021/07/02 11:42:10;;;;;;;29.00;27.50;;;29.80;48.70;;;;;;4954656;28;20930;-65
2021/07/02 11:44:37;;;;;;;29.30;27.70;;;30.00;48.50;;;;;;4954966;28;20452;-65
2021/07/02 11:47:06;;;;;;;29.60;27.90;;;32.60;47.00;;;;;;4954625;28;20498;-65
2021/07/02 11:49:32;;;;;;;29.73;28.03;;;31.90;43.80;;;;;;4954738;28;20447;-65
2021/07/02 11:51:59;;;;;;;28.93;27.30;;;30.00;45.90;;;;;;4954475;28;20448;-65
2021/07/02 11:54:26;;;;;;;29.97;28.47;;;29.00;47.50;;;;;;4954630;28;20459;-65
2021/07/02 11:56:53;;;;;;;28.33;26.73;;;29.40;49.00;;;;;;4984476;23;20498;-66
2021/07/02 11:59:21;;;;;;;29.87;27.90;;;29.60;47.40;;;;;;4993294;28;20477;-66
2021/07/02 12:01:51;;;;;;;29.33;27.67;;;28.70;47.80;;;;;;4993031;28;20822;-66
2021/07/02 12:04:20;;;;;;;31.80;29.80;;;28.70;49.70;;;;;;4993162;28;20835;-66
2021/07/02 12:06:49;;;;;;;29.97;28.27;;;29.40;49.00;;;;;;4992935;28;20566;-66
2021/07/02 12:09:18;;;;;;;29.33;27.63;;;29.20;47.60;;;;;;4993036;28;20446;-66
2021/07/02 12:11:51;;;;;;;30.43;28.53;;;28.10;49.00;;;;;;4992898;28;20818;-66
2021/07/02 12:14:22;;;;;;;27.60;26.23;;;27.40;50.60;;;;;;4992985;28;20458;-66
2021/07/02 12:16:50;;;;;;;30.10;28.43;;;27.10;51.00;;;;;;4992903;28;21144;-66
2021/07/02 12:19:20;;;;;;;28.00;26.57;;;27.00;51.90;;;;;;4993028;28;20877;-66
2021/07/02 12:21:50;;;;;;;28.40;26.90;;;29.60;49.80;;;;;;4992678;28;20944;-66
2021/07/02 12:24:20;;;;;;;28.90;27.13;;;34.20;44.30;;;;;;4992898;28;20871;-66
2021/07/02 12:26:51;;;;;;;30.03;28.33;;;32.60;41.30;;;;;;4992689;28;20497;-66
2021/07/02 12:29:18;;;;;;;28.50;26.80;;;30.10;43.90;;;;;;4992784;28;20481;-66
2021/07/02 12:31:47;;;;;;;28.07;26.37;;;28.50;46.90;;;;;;4992461;28;20446;-66
2021/07/02 12:34:20;;;;;;;28.23;26.43;;;28.90;49.10;;;;;;4992652;28;20453;-66
2021/07/02 12:36:54;;;;;;;29.80;28.07;;;33.50;45.60;;;;;;4992378;28;21002;-67